Time;durP1;ratioP1;P1;durP2;ratioP2;P2;SDS_P1;SDS_P2;PMS_P1;PMS_P2;Temp;Humidity;BMP_temperature;BMP_pressure;BME280_temperature;BME280_humidity;BME280_pressure;Samples;Min_cycle;Max_cycle;Signal;HPM_P1;HPM_P2
2022/03/12 00:01:21;;;;;;;11.98;6.78;;;5.70;61.90;;;;;;5035021;28;20094;-76
2022/03/12 00:03:47;;;;;;;12.32;6.93;;;5.70;61.90;;;;;;5031613;28;20500;-76
2022/03/12 00:06:15;;;;;;;13.02;6.75;;;5.70;62.10;;;;;;5043195;28;20041;-77
2022/03/12 00:08:42;;;;;;;11.57;5.93;;;5.70;62.10;;;;;;5033386;28;20144;-77
2022/03/12 00:11:16;;;;;;;12.80;6.30;;;5.70;62.30;;;;;;5040872;28;20049;-77
2022/03/12 00:13:43;;;;;;;14.80;6.35;;;5.70;62.50;;;;;;5029834;28;20087;-77
2022/03/12 00:16:16;;;;;;;10.15;5.95;;;5.70;62.50;;;;;;5025065;28;20056;-77
2022/03/12 00:18:46;;;;;;;12.82;6.22;;;5.70;62.70;;;;;;5022365;28;20041;-77
2022/03/12 00:21:12;;;;;;;11.57;6.35;;;5.70;62.70;;;;;;5023779;28;20042;-79
2022/03/12 00:23:40;;;;;;;11.27;6.47;;;5.70;62.80;;;;;;5040781;28;20101;-78
2022/03/12 00:26:07;;;;;;;11.55;6.32;;;6.10;63.10;;;;;;5024528;28;20045;-76
2022/03/12 00:28:32;;;;;;;12.88;6.50;;;5.60;63.00;;;;;;5011361;28;20088;-77
2022/03/12 00:30:58;;;;;;;9.95;5.93;;;5.60;63.70;;;;;;5032771;28;20045;-77
2022/03/12 00:33:24;;;;;;;14.93;6.28;;;5.60;63.00;;;;;;5032338;28;20551;-77
2022/03/12 00:35:52;;;;;;;15.45;6.43;;;5.60;62.90;;;;;;5004768;28;20042;-79
2022/03/12 00:38:21;;;;;;;11.95;6.38;;;6.30;63.30;;;;;;5013600;28;20045;-77
2022/03/12 00:40:47;;;;;;;11.73;6.63;;;5.60;63.00;;;;;;5046660;28;20068;-79
2022/03/12 00:43:15;;;;;;;10.73;6.20;;;5.60;63.00;;;;;;5039657;28;20077;-77
2022/03/12 00:45:41;;;;;;;16.33;6.30;;;5.50;62.90;;;;;;5044558;28;20088;-77
2022/03/12 00:48:07;;;;;;;14.82;6.63;;;5.50;62.90;;;;;;5043570;28;20046;-77
2022/03/12 00:50:33;;;;;;;11.93;6.20;;;5.60;63.00;;;;;;5039832;28;20051;-78
2022/03/12 00:52:59;;;;;;;12.35;6.20;;;5.50;63.10;;;;;;5046186;28;20041;-78
2022/03/12 00:55:25;;;;;;;12.57;6.13;;;5.50;63.00;;;;;;5025769;28;20038;-78
2022/03/12 00:57:50;;;;;;;10.20;6.10;;;5.50;63.00;;;;;;5037019;28;20037;-79
2022/03/12 01:00:18;;;;;;;9.50;5.78;;;5.50;62.90;;;;;;5039189;28;20105;-77
2022/03/12 01:02:45;;;;;;;14.90;5.90;;;5.50;62.90;;;;;;5039547;28;20092;-78
2022/03/12 01:05:14;;;;;;;10.35;6.70;;;5.80;62.70;;;;;;5033885;28;20033;-77
2022/03/12 01:07:39;;;;;;;12.27;6.18;;;5.60;62.70;;;;;;5048553;28;20037;-77
2022/03/12 01:10:05;;;;;;;14.30;6.72;;;5.50;62.60;;;;;;5036239;28;20053;-78
2022/03/12 01:12:31;;;;;;;13.80;6.07;;;5.50;62.60;;;;;;5014825;28;20056;-78
2022/03/12 01:14:57;;;;;;;12.10;6.28;;;5.50;62.40;;;;;;5021930;28;20053;-78
2022/03/12 01:17:23;;;;;;;11.55;6.63;;;5.60;62.20;;;;;;5043420;28;20038;-78
2022/03/12 01:19:49;;;;;;;22.40;7.65;;;5.60;62.20;;;;;;5038072;28;20047;-77
2022/03/12 01:22:20;;;;;;;11.35;5.95;;;5.60;62.30;;;;;;5043765;28;20034;-75
2022/03/12 01:24:47;;;;;;;15.93;6.40;;;5.60;62.00;;;;;;5027237;28;20052;-77
2022/03/12 01:27:15;;;;;;;9.65;6.25;;;5.60;62.20;;;;;;5036039;28;20052;-75
2022/03/12 01:29:41;;;;;;;15.70;7.07;;;5.60;62.30;;;;;;5040981;28;20075;-78
2022/03/12 01:32:10;;;;;;;10.63;6.30;;;5.60;62.30;;;;;;5038100;28;20068;-78
2022/03/12 01:34:36;;;;;;;14.45;6.45;;;5.60;62.30;;;;;;5036929;28;20032;-78
2022/03/12 01:37:03;;;;;;;15.43;6.43;;;5.60;62.60;;;;;;5036414;28;20045;-78
2022/03/12 01:39:29;;;;;;;13.40;6.63;;;5.50;62.80;;;;;;5030577;28;20037;-78
2022/03/12 01:41:54;;;;;;;16.75;5.88;;;5.60;62.80;;;;;;5040544;28;20476;-77
2022/03/12 01:44:21;;;;;;;10.18;5.90;;;5.50;62.80;;;;;;5029926;28;20052;-78
2022/03/12 01:46:48;;;;;;;12.77;6.13;;;5.50;62.50;;;;;;5039485;28;20659;-78
2022/03/12 01:49:23;;;;;;;16.65;6.63;;;5.50;62.60;;;;;;5017092;28;20037;-77
2022/03/12 01:51:52;;;;;;;12.13;6.38;;;5.50;62.70;;;;;;5041477;28;20061;-78
2022/03/12 01:54:24;;;;;;;12.65;7.07;;;5.50;62.80;;;;;;5038759;28;20038;-81
2022/03/12 01:56:52;;;;;;;13.60;6.95;;;5.50;62.80;;;;;;5043082;28;20042;-78
2022/03/12 01:59:19;;;;;;;14.90;7.53;;;5.50;62.90;;;;;;5040167;28;20038;-78
2022/03/12 02:01:46;;;;;;;12.75;6.93;;;5.50;63.00;;;;;;5040690;28;20049;-78
2022/03/12 02:04:12;;;;;;;12.02;6.68;;;5.50;62.90;;;;;;5044826;28;20055;-79
2022/03/12 02:06:42;;;;;;;14.77;6.88;;;6.00;63.20;;;;;;5041844;28;20041;-78
2022/03/12 02:09:14;;;;;;;14.23;6.43;;;5.50;63.00;;;;;;5037256;28;20049;-78
2022/03/12 02:11:41;;;;;;;13.10;6.95;;;5.50;63.20;;;;;;5033848;28;20104;-78
2022/03/12 02:14:15;;;;;;;14.13;7.03;;;5.50;63.30;;;;;;5029094;28;20089;-78
2022/03/12 02:16:57;;;;;;;12.52;6.55;;;5.40;63.70;;;;;;5034171;28;20127;-77
2022/03/12 02:19:27;;;;;;;13.05;6.60;;;5.40;63.80;;;;;;5032263;28;20059;-76
2022/03/12 02:22:14;;;;;;;16.65;7.47;;;5.40;64.00;;;;;;5031925;28;20042;-77
2022/03/12 02:24:40;;;;;;;12.07;6.50;;;5.50;64.10;;;;;;5031252;28;20046;-77
2022/03/12 02:27:10;;;;;;;12.95;7.00;;;5.40;64.30;;;;;;5017575;28;20049;-78
2022/03/12 02:29:37;;;;;;;10.05;6.30;;;5.40;64.40;;;;;;5012294;28;20124;-78
2022/03/12 02:32:09;;;;;;;12.18;6.82;;;5.40;64.50;;;;;;5026655;28;20447;-78
2022/03/12 02:34:49;;;;;;;11.70;6.63;;;5.30;64.50;;;;;;5025180;28;20048;-76
2022/03/12 02:37:26;;;;;;;12.55;6.60;;;5.30;65.00;;;;;;5028982;28;20049;-77
2022/03/12 02:39:51;;;;;;;11.45;6.45;;;5.30;65.00;;;;;;5024509;28;20046;-78
2022/03/12 02:42:20;;;;;;;12.88;6.85;;;5.30;65.00;;;;;;5018646;28;20030;-77
2022/03/12 02:44:47;;;;;;;9.50;6.18;;;5.20;65.80;;;;;;5004686;28;20085;-77
2022/03/12 02:47:30;;;;;;;12.47;7.23;;;5.20;65.40;;;;;;5034323;28;20046;-78
2022/03/12 02:49:59;;;;;;;13.80;6.13;;;5.20;65.70;;;;;;5034902;28;20045;-77
2022/03/12 02:52:27;;;;;;;16.70;6.93;;;5.20;65.70;;;;;;5040106;28;20060;-77
2022/03/12 02:54:58;;;;;;;20.88;6.78;;;5.20;65.70;;;;;;5042442;28;20040;-77
2022/03/12 02:57:25;;;;;;;16.13;7.13;;;5.20;65.90;;;;;;5038615;28;20038;-77
2022/03/12 02:59:53;;;;;;;11.63;6.93;;;5.20;66.00;;;;;;5036302;28;20160;-78
2022/03/12 03:02:38;;;;;;;11.43;6.80;;;5.20;66.30;;;;;;5024343;28;20048;-78
2022/03/12 03:05:25;;;;;;;12.85;6.85;;;5.20;66.10;;;;;;4995063;28;20053;-77
2022/03/12 03:07:56;;;;;;;10.90;6.25;;;5.20;66.20;;;;;;5018834;28;20133;-76
2022/03/12 03:10:45;;;;;;;11.18;6.55;;;5.10;66.40;;;;;;5033427;28;20038;-78
2022/03/12 03:13:17;;;;;;;16.55;6.65;;;5.10;66.30;;;;;;5031225;28;20042;-76
2022/03/12 03:15:59;;;;;;;13.20;6.70;;;5.10;66.30;;;;;;5019338;28;20072;-79
2022/03/12 03:18:29;;;;;;;10.38;6.55;;;5.10;66.90;;;;;;5019908;28;20056;-77
2022/03/12 03:20:55;;;;;;;9.90;6.20;;;6.10;66.90;;;;;;5042360;28;20109;-78
2022/03/12 03:23:22;;;;;;;19.95;6.95;;;5.10;66.50;;;;;;5026348;28;20041;-79
2022/03/12 03:25:48;;;;;;;11.73;6.57;;;5.10;66.70;;;;;;5026364;28;20102;-78
2022/03/12 03:28:15;;;;;;;12.52;6.55;;;5.10;66.80;;;;;;5036065;28;20065;-78
2022/03/12 03:30:41;;;;;;;13.85;6.80;;;5.00;66.70;;;;;;5042940;28;20566;-78
2022/03/12 03:33:09;;;;;;;14.15;6.53;;;5.00;66.90;;;;;;5031918;28;20034;-77
2022/03/12 03:35:36;;;;;;;;;;;5.00;66.90;;;;;;5027554;28;20038;-78
2022/03/12 03:38:02;;;;;;;13.32;6.60;;;5.00;67.20;;;;;;5037584;28;20442;-80
2022/03/12 03:40:28;;;;;;;13.18;6.95;;;5.80;67.60;;;;;;5029312;28;20037;-77
2022/03/12 03:42:53;;;;;;;15.15;6.30;;;4.90;67.10;;;;;;5034544;28;20037;-78
2022/03/12 03:45:22;;;;;;;10.80;6.43;;;4.90;67.20;;;;;;5033722;28;20048;-78
2022/03/12 03:47:49;;;;;;;14.80;6.95;;;4.90;67.40;;;;;;5034176;28;20030;-77
2022/03/12 03:50:15;;;;;;;12.95;6.88;;;4.90;67.80;;;;;;5036313;28;20054;-77
2022/03/12 03:52:41;;;;;;;15.60;7.40;;;4.90;67.50;;;;;;5012119;28;20045;-78
2022/03/12 03:55:07;;;;;;;9.77;6.50;;;4.90;67.60;;;;;;5038504;28;20422;-77
2022/03/12 03:57:33;;;;;;;10.48;6.65;;;4.90;67.50;;;;;;5025669;28;20097;-77
2022/03/12 03:59:58;;;;;;;19.25;6.88;;;5.00;67.70;;;;;;5038471;28;20045;-78
2022/03/12 04:02:24;;;;;;;14.00;6.60;;;4.80;67.70;;;;;;5042115;28;20041;-78
2022/03/12 04:04:51;;;;;;;11.30;6.43;;;4.80;67.90;;;;;;5021073;28;20109;-78
2022/03/12 04:07:17;;;;;;;12.25;6.50;;;4.80;67.70;;;;;;5035709;28;20073;-78
2022/03/12 04:09:42;;;;;;;11.77;6.55;;;4.80;68.40;;;;;;5012325;28;20046;-78
2022/03/12 04:12:08;;;;;;;14.10;6.85;;;4.80;67.90;;;;;;5027364;28;20042;-78
2022/03/12 04:14:34;;;;;;;11.13;5.90;;;4.70;68.10;;;;;;5037116;28;20073;-78
2022/03/12 04:17:00;;;;;;;10.52;6.38;;;4.70;68.10;;;;;;5034426;28;20033;-79
2022/03/12 04:19:29;;;;;;;10.60;6.10;;;4.70;68.00;;;;;;5018328;28;20523;-76
2022/03/12 04:21:57;;;;;;;12.52;6.88;;;4.70;68.20;;;;;;5016778;28;20046;-75
2022/03/12 04:24:24;;;;;;;11.85;6.70;;;4.60;68.40;;;;;;5038592;28;20045;-77
2022/03/12 04:26:50;;;;;;;12.80;6.32;;;4.60;68.40;;;;;;5013680;28;20148;-76
2022/03/12 04:29:18;;;;;;;14.68;6.95;;;4.60;68.40;;;;;;5038573;28;20061;-76
2022/03/12 04:31:46;;;;;;;12.02;6.30;;;4.50;68.40;;;;;;5032068;28;20053;-78
2022/03/12 04:34:13;;;;;;;11.38;6.72;;;4.50;68.70;;;;;;5013967;28;20044;-77
2022/03/12 04:36:42;;;;;;;13.32;6.38;;;4.50;69.00;;;;;;5031754;28;20061;-77
2022/03/12 04:39:09;;;;;;;;;;;4.50;69.30;;;;;;5033210;28;20038;-77
2022/03/12 04:41:36;;;;;;;9.27;5.50;;;4.40;69.10;;;;;;5025223;28;20027;-77
2022/03/12 04:44:04;;;;;;;9.50;6.10;;;4.40;68.90;;;;;;5027671;28;20409;-77
2022/03/12 04:46:30;;;;;;;10.63;6.60;;;4.40;69.00;;;;;;5018207;28;20053;-78
2022/03/12 04:48:55;;;;;;;14.43;6.28;;;4.40;69.10;;;;;;5030691;28;20109;-78
2022/03/12 04:51:21;;;;;;;10.40;6.35;;;4.40;69.20;;;;;;5040612;28;20037;-78
2022/03/12 04:53:47;;;;;;;11.82;6.55;;;4.40;69.20;;;;;;5036733;28;20091;-78
2022/03/12 04:56:12;;;;;;;18.60;7.18;;;4.30;69.60;;;;;;5021445;28;20065;-78
2022/03/12 04:58:38;;;;;;;14.95;6.68;;;4.30;69.70;;;;;;5028920;28;20046;-78
2022/03/12 05:01:06;;;;;;;13.75;6.57;;;4.30;69.70;;;;;;5037431;28;20048;-77
2022/03/12 05:03:32;;;;;;;13.10;6.78;;;4.30;69.60;;;;;;5032026;28;20050;-76
2022/03/12 05:05:58;;;;;;;15.25;6.63;;;4.30;69.80;;;;;;5032567;28;20095;-75
2022/03/12 05:08:28;;;;;;;16.17;6.50;;;4.30;69.80;;;;;;5037181;28;20092;-78
2022/03/12 05:10:56;;;;;;;14.30;6.70;;;4.30;69.70;;;;;;5021970;28;20038;-76
2022/03/12 05:13:24;;;;;;;11.55;6.32;;;4.30;69.70;;;;;;5032982;28;20392;-77
2022/03/12 05:15:52;;;;;;;10.77;6.57;;;4.30;69.90;;;;;;4997602;28;20400;-78
2022/03/12 05:18:19;;;;;;;11.50;7.18;;;4.30;69.90;;;;;;5000319;28;20103;-77
2022/03/12 05:20:48;;;;;;;11.80;6.78;;;4.30;70.00;;;;;;5027596;28;20080;-78
2022/03/12 05:23:15;;;;;;;11.68;6.82;;;4.40;70.10;;;;;;5009229;28;20042;-77
2022/03/12 05:25:42;;;;;;;11.63;6.38;;;4.30;70.00;;;;;;5033469;28;20457;-76
2022/03/12 05:28:10;;;;;;;13.63;6.45;;;4.30;70.00;;;;;;5035130;28;20042;-78
2022/03/12 05:30:36;;;;;;;13.02;6.47;;;4.40;69.90;;;;;;5027218;28;20073;-78
2022/03/12 05:33:04;;;;;;;14.27;7.25;;;4.40;69.70;;;;;;5015796;28;20593;-77
2022/03/12 05:35:30;;;;;;;12.02;5.78;;;4.40;69.70;;;;;;5030436;28;20034;-76
2022/03/12 05:37:56;;;;;;;13.35;6.75;;;4.40;69.80;;;;;;5020833;28;20511;-78
2022/03/12 05:40:29;;;;;;;19.35;7.35;;;4.30;70.00;;;;;;5030208;28;20103;-77
2022/03/12 05:42:55;;;;;;;14.18;6.70;;;4.30;70.10;;;;;;5022877;28;20046;-78
2022/03/12 05:45:22;;;;;;;11.85;7.07;;;4.30;70.40;;;;;;5010592;28;20042;-77
2022/03/12 05:47:49;;;;;;;11.48;7.30;;;4.30;70.50;;;;;;5007625;28;20041;-77
2022/03/12 05:50:16;;;;;;;11.93;6.43;;;4.30;70.50;;;;;;5028332;28;20033;-78
2022/03/12 05:52:48;;;;;;;12.27;6.40;;;5.10;71.10;;;;;;5022826;28;20081;-79
2022/03/12 05:55:22;;;;;;;13.82;6.18;;;4.30;71.00;;;;;;5028006;28;20101;-77
2022/03/12 05:57:49;;;;;;;10.35;6.13;;;4.30;71.00;;;;;;5029742;28;20045;-78
2022/03/12 06:00:16;;;;;;;12.25;7.05;;;4.30;70.90;;;;;;5032777;28;20042;-79
2022/03/12 06:02:49;;;;;;;14.35;7.40;;;4.30;71.00;;;;;;5008207;28;20076;-78
2022/03/12 06:05:20;;;;;;;13.70;6.63;;;4.30;71.00;;;;;;5029668;28;20112;-78
2022/03/12 06:07:47;;;;;;;13.63;7.13;;;4.30;71.30;;;;;;5025869;28;20046;-79
2022/03/12 06:10:19;;;;;;;12.18;6.90;;;4.30;71.30;;;;;;5024378;28;20097;-78
2022/03/12 06:12:45;;;;;;;13.45;6.28;;;4.30;72.00;;;;;;5029477;28;20481;-78
2022/03/12 06:15:14;;;;;;;13.25;6.47;;;4.30;71.50;;;;;;4998627;28;20114;-77
2022/03/12 06:17:39;;;;;;;;;;;4.30;71.70;;;;;;5029186;28;20077;-77
2022/03/12 06:20:10;;;;;;;19.17;6.60;;;4.30;71.80;;;;;;5030667;28;19944;-77
2022/03/12 06:22:37;;;;;;;11.82;6.35;;;4.30;71.60;;;;;;5035711;28;20049;-79
2022/03/12 06:25:05;;;;;;;13.35;6.63;;;4.30;71.60;;;;;;5041491;28;20042;-76
2022/03/12 06:27:31;;;;;;;10.80;6.30;;;4.30;71.50;;;;;;5040418;28;20041;-78
2022/03/12 06:29:57;;;;;;;12.07;6.45;;;4.40;71.40;;;;;;5032103;28;20296;-78
2022/03/12 06:32:23;;;;;;;11.50;7.22;;;4.40;71.20;;;;;;5037529;28;20037;-77
2022/03/12 06:34:49;;;;;;;8.02;5.35;;;4.40;71.30;;;;;;5018409;28;20125;-78
2022/03/12 06:37:15;;;;;;;13.82;5.90;;;4.40;71.40;;;;;;5043126;28;20038;-78
2022/03/12 06:39:41;;;;;;;11.57;6.20;;;4.40;71.40;;;;;;5046749;28;20046;-77
2022/03/12 06:42:07;;;;;;;16.20;7.68;;;4.40;71.60;;;;;;5045047;28;20013;-78
2022/03/12 06:44:33;;;;;;;11.30;6.30;;;4.40;71.80;;;;;;5027424;28;20069;-79
2022/03/12 06:46:59;;;;;;;11.27;6.13;;;4.40;71.70;;;;;;5038057;28;20028;-77
2022/03/12 06:49:26;;;;;;;12.63;6.72;;;4.40;71.60;;;;;;5024771;28;20037;-77
2022/03/12 06:51:52;;;;;;;13.75;6.15;;;4.40;71.70;;;;;;5045873;28;20189;-78
2022/03/12 06:54:18;;;;;;;14.82;6.57;;;4.40;72.00;;;;;;5032624;28;20025;-77
2022/03/12 06:56:44;;;;;;;12.82;5.78;;;4.50;71.60;;;;;;5040648;28;20030;-77
2022/03/12 06:59:09;;;;;;;17.98;6.68;;;4.50;71.40;;;;;;5047268;28;20022;-77
2022/03/12 07:01:36;;;;;;;11.23;6.43;;;4.50;71.30;;;;;;5045256;28;20025;-76
2022/03/12 07:04:02;;;;;;;15.63;6.70;;;4.50;71.10;;;;;;5040759;28;20105;-77
2022/03/12 07:06:28;;;;;;;13.00;5.75;;;4.60;71.00;;;;;;5011529;28;20045;-77
2022/03/12 07:08:54;;;;;;;13.00;5.95;;;4.60;70.80;;;;;;5034270;28;20034;-76
2022/03/12 07:11:20;;;;;;;13.70;6.13;;;4.60;70.90;;;;;;5046432;28;20030;-77
2022/03/12 07:13:46;;;;;;;14.52;6.32;;;4.60;70.70;;;;;;5053363;28;20089;-75
2022/03/12 07:16:12;;;;;;;10.90;6.30;;;4.70;71.10;;;;;;5037162;28;20061;-77
2022/03/12 07:18:38;;;;;;;19.33;5.95;;;4.70;70.80;;;;;;5031326;28;20053;-79
2022/03/12 07:21:05;;;;;;;10.73;5.90;;;4.80;70.80;;;;;;5010313;28;20064;-75
2022/03/12 07:23:31;;;;;;;16.20;6.95;;;4.80;70.80;;;;;;5035184;28;20042;-77
2022/03/12 07:25:57;;;;;;;13.68;5.75;;;4.80;70.80;;;;;;5033556;28;20053;-78
2022/03/12 07:28:22;;;;;;;15.07;6.70;;;4.80;70.90;;;;;;5036807;28;20066;-77
2022/03/12 07:30:48;;;;;;;10.77;6.65;;;4.90;70.90;;;;;;5021073;28;20060;-77
2022/03/12 07:33:15;;;;;;;10.82;6.00;;;4.90;70.90;;;;;;5024469;28;20038;-77
2022/03/12 07:35:41;;;;;;;11.00;6.45;;;4.90;70.90;;;;;;5036729;28;20041;-77
2022/03/12 07:38:06;;;;;;;14.68;6.43;;;4.90;71.30;;;;;;5057614;28;20067;-75
2022/03/12 07:40:33;;;;;;;10.07;6.45;;;5.00;71.50;;;;;;5053042;28;20037;-76
2022/03/12 07:42:59;;;;;;;11.02;6.82;;;5.00;71.60;;;;;;5033794;28;20061;-77
2022/03/12 07:45:25;;;;;;;10.30;6.32;;;5.00;71.80;;;;;;5043839;28;20038;-77
2022/03/12 07:47:52;;;;;;;12.77;6.40;;;5.10;71.80;;;;;;5052570;28;20022;-78
2022/03/12 07:50:18;;;;;;;17.60;6.50;;;5.30;71.50;;;;;;5045281;28;20085;-76
2022/03/12 07:52:44;;;;;;;11.43;6.43;;;5.40;71.30;;;;;;5045598;28;20052;-77
2022/03/12 07:55:11;;;;;;;12.50;5.93;;;5.50;70.90;;;;;;5050342;28;20038;-77
2022/03/12 07:57:38;;;;;;;10.15;6.10;;;5.60;70.90;;;;;;5043740;28;20077;-76
2022/03/12 08:00:06;;;;;;;12.38;6.38;;;5.80;70.50;;;;;;5049940;28;20034;-78
2022/03/12 08:02:32;;;;;;;9.80;6.38;;;6.00;70.40;;;;;;5030767;28;20097;-77
2022/03/12 08:04:57;;;;;;;8.77;5.85;;;6.10;69.80;;;;;;5052116;28;20056;-78
2022/03/12 08:07:24;;;;;;;9.93;6.03;;;6.20;69.40;;;;;;5048065;28;20085;-76
2022/03/12 08:09:56;;;;;;;12.32;6.35;;;6.30;69.20;;;;;;5056712;28;20040;-77
2022/03/12 08:12:28;;;;;;;9.80;6.07;;;6.40;68.80;;;;;;5039694;28;20077;-77
2022/03/12 08:14:54;;;;;;;12.80;6.95;;;6.60;68.40;;;;;;5022624;28;20056;-77
2022/03/12 08:17:20;;;;;;;12.48;6.30;;;6.70;68.80;;;;;;5044833;28;20057;-77
2022/03/12 08:19:46;;;;;;;10.77;6.20;;;6.90;68.60;;;;;;5054601;28;20037;-77
2022/03/12 08:22:13;;;;;;;14.05;6.22;;;7.00;68.20;;;;;;5046531;28;20060;-77
2022/03/12 08:24:38;;;;;;;10.38;6.55;;;7.20;68.10;;;;;;5053897;28;20116;-77
2022/03/12 08:27:05;;;;;;;11.52;6.72;;;7.30;68.00;;;;;;5051289;28;20093;-76
2022/03/12 08:29:31;;;;;;;11.20;6.53;;;7.50;67.50;;;;;;5042140;28;20060;-78
2022/03/12 08:31:57;;;;;;;15.00;6.97;;;7.60;67.50;;;;;;5042883;28;20484;-77
2022/03/12 08:34:23;;;;;;;11.73;6.30;;;7.70;67.30;;;;;;5052405;28;20033;-75
2022/03/12 08:36:49;;;;;;;14.32;6.53;;;7.70;67.40;;;;;;5024933;28;20069;-79
2022/03/12 08:39:15;;;;;;;9.52;6.25;;;7.80;67.60;;;;;;5042208;28;20064;-78
2022/03/12 08:41:42;;;;;;;11.90;6.75;;;7.90;67.70;;;;;;5017399;28;20065;-78
2022/03/12 08:44:09;;;;;;;10.73;6.13;;;8.00;67.80;;;;;;5026699;28;20046;-78
2022/03/12 08:46:35;;;;;;;10.95;6.35;;;8.10;67.80;;;;;;5043367;28;20056;-76
2022/03/12 08:49:02;;;;;;;10.68;6.72;;;8.20;67.50;;;;;;5042834;28;20084;-79
2022/03/12 08:51:27;;;;;;;14.48;7.88;;;8.40;68.00;;;;;;5049073;28;20060;-77
2022/03/12 08:53:53;;;;;;;12.65;6.82;;;8.60;67.70;;;;;;5032316;28;20025;-79
2022/03/12 08:56:19;;;;;;;12.48;6.90;;;8.80;67.00;;;;;;5044421;28;20045;-78
2022/03/12 08:58:45;;;;;;;10.98;7.03;;;8.90;67.20;;;;;;5046663;28;20041;-78
2022/03/12 09:01:11;;;;;;;15.27;7.05;;;9.10;66.80;;;;;;5050958;28;20029;-78
2022/03/12 09:03:37;;;;;;;12.85;7.13;;;9.10;66.70;;;;;;5033750;28;20029;-78
2022/03/12 09:06:04;;;;;;;11.23;7.03;;;9.10;66.60;;;;;;5044447;28;20072;-78
2022/03/12 09:08:30;;;;;;;12.25;7.05;;;9.20;66.70;;;;;;5030637;28;20037;-77
2022/03/12 09:10:55;;;;;;;11.48;6.68;;;9.30;66.60;;;;;;5029841;28;20088;-77
2022/03/12 09:13:22;;;;;;;12.15;6.65;;;9.40;66.80;;;;;;5044921;28;20117;-77
2022/03/12 09:15:48;;;;;;;14.75;7.15;;;9.40;66.70;;;;;;5032151;28;20041;-80
2022/03/12 09:18:15;;;;;;;12.07;6.88;;;9.50;66.50;;;;;;5016797;28;20041;-79
2022/03/12 09:20:47;;;;;;;13.80;7.37;;;9.60;66.70;;;;;;5010207;28;20046;-77
2022/03/12 09:23:14;;;;;;;14.73;7.35;;;9.70;66.40;;;;;;5031260;28;20372;-80
2022/03/12 09:25:41;;;;;;;15.65;7.40;;;9.90;66.50;;;;;;5009901;28;20129;-79
2022/03/12 09:28:07;;;;;;;16.10;7.05;;;10.00;66.80;;;;;;5019004;28;20065;-79
2022/03/12 09:30:32;;;;;;;15.30;7.25;;;10.30;66.90;;;;;;5019492;28;20040;-78
2022/03/12 09:32:58;;;;;;;14.18;7.22;;;10.60;66.70;;;;;;5025328;28;20132;-79
2022/03/12 09:35:24;;;;;;;12.27;7.45;;;11.40;66.60;;;;;;5014796;28;20037;-79
2022/03/12 09:37:50;;;;;;;9.82;6.40;;;10.90;66.40;;;;;;5017111;28;20043;-78
2022/03/12 09:40:15;;;;;;;20.77;9.90;;;11.10;66.30;;;;;;5012178;28;20057;-80
2022/03/12 09:42:42;;;;;;;12.23;7.70;;;11.30;66.50;;;;;;5022319;28;20100;-79
2022/03/12 09:45:08;;;;;;;12.52;7.10;;;11.40;66.60;;;;;;5018687;28;20050;-79
2022/03/12 09:47:34;;;;;;;12.05;7.95;;;11.60;66.00;;;;;;5014490;28;20057;-78
2022/03/12 09:50:00;;;;;;;10.30;7.32;;;11.80;66.90;;;;;;5023377;28;20412;-78
2022/03/12 09:52:25;;;;;;;11.15;7.60;;;12.10;66.50;;;;;;5013186;28;20109;-79
2022/03/12 09:54:51;;;;;;;18.10;7.28;;;12.30;66.10;;;;;;5019422;28;20051;-78
2022/03/12 09:57:17;;;;;;;14.23;7.63;;;12.50;66.50;;;;;;5019027;28;20551;-78
2022/03/12 09:59:42;;;;;;;15.82;8.15;;;12.70;66.70;;;;;;5022795;28;20069;-77
2022/03/12 10:02:09;;;;;;;12.75;7.43;;;12.90;67.10;;;;;;5019104;28;20544;-78
2022/03/12 10:04:35;;;;;;;10.23;7.30;;;13.30;67.70;;;;;;5030803;28;20049;-78
2022/03/12 10:07:00;;;;;;;10.70;7.60;;;13.50;67.00;;;;;;5023273;28;20038;-78
2022/03/12 10:09:26;;;;;;;13.32;7.50;;;13.70;67.10;;;;;;5018890;28;20055;-78
2022/03/12 10:11:52;;;;;;;12.63;7.15;;;13.80;67.10;;;;;;5013194;28;20133;-78
2022/03/12 10:14:19;;;;;;;17.92;7.95;;;14.30;67.00;;;;;;5016204;28;20056;-78
2022/03/12 10:16:45;;;;;;;22.90;8.27;;;14.30;67.10;;;;;;5023930;28;20115;-78
2022/03/12 10:19:10;;;;;;;13.73;7.28;;;14.10;67.00;;;;;;5018994;28;20061;-77
2022/03/12 10:21:42;;;;;;;11.07;7.63;;;14.30;67.00;;;;;;5037407;28;20042;-77
2022/03/12 10:24:09;;;;;;;13.75;7.15;;;14.40;67.20;;;;;;5026817;28;20042;-78
2022/03/12 10:26:35;;;;;;;10.52;7.88;;;14.50;67.20;;;;;;5026080;28;20066;-78
2022/03/12 10:29:00;;;;;;;11.10;8.10;;;14.50;67.40;;;;;;5024743;28;20046;-79
2022/03/12 10:31:28;;;;;;;12.07;7.20;;;14.60;67.60;;;;;;5031508;28;20044;-77
2022/03/12 10:34:13;;;;;;;12.63;7.95;;;14.70;67.70;;;;;;5017392;28;20046;-79
2022/03/12 10:36:39;;;;;;;10.82;7.70;;;14.70;67.20;;;;;;5022945;28;20053;-79
2022/03/12 10:39:05;;;;;;;11.65;8.13;;;15.00;67.50;;;;;;5045220;28;20042;-78
2022/03/12 10:41:31;;;;;;;13.80;7.50;;;15.10;67.80;;;;;;5046722;28;20049;-79
2022/03/12 10:43:57;;;;;;;16.55;7.97;;;15.30;67.90;;;;;;5018332;28;20489;-77
2022/03/12 10:46:27;;;;;;;21.48;7.60;;;15.30;67.70;;;;;;5004410;28;20041;-79
2022/03/12 10:48:57;;;;;;;13.13;8.73;;;15.50;67.10;;;;;;5038697;28;20026;-79
2022/03/12 10:51:36;;;;;;;10.55;7.88;;;15.50;67.90;;;;;;5042841;28;20439;-78
2022/03/12 10:54:15;;;;;;;18.88;8.15;;;15.60;67.60;;;;;;5034092;28;20046;-80
2022/03/12 10:56:44;;;;;;;;;;;15.70;67.00;;;;;;5046608;28;20044;-79
2022/03/12 10:59:14;;;;;;;11.20;7.68;;;15.70;66.80;;;;;;5052414;28;19908;-78
2022/03/12 11:01:51;;;;;;;15.00;8.25;;;15.60;67.90;;;;;;5037965;28;20054;-78
2022/03/12 11:04:29;;;;;;;10.63;7.05;;;15.70;68.20;;;;;;5037686;28;20071;-77
2022/03/12 11:06:58;;;;;;;15.88;7.50;;;15.80;68.80;;;;;;5052745;28;20052;-78
2022/03/12 11:09:39;;;;;;;12.85;8.25;;;15.80;68.60;;;;;;5030615;28;20404;-77
2022/03/12 11:12:35;;;;;;;15.25;7.40;;;15.90;68.50;;;;;;5033882;28;20029;-78
2022/03/12 11:15:06;;;;;;;13.88;8.45;;;15.90;68.90;;;;;;5039193;28;20042;-77
2022/03/12 11:17:49;;;;;;;15.07;8.00;;;15.80;69.20;;;;;;5041792;28;20064;-78
2022/03/12 11:20:28;;;;;;;14.15;8.45;;;15.70;69.30;;;;;;5036343;28;20053;-81
2022/03/12 11:23:08;;;;;;;11.68;7.60;;;15.60;69.60;;;;;;5039528;28;20053;-78
2022/03/12 11:25:49;;;;;;;13.88;8.45;;;15.60;70.10;;;;;;5059871;28;20049;-78
2022/03/12 11:28:20;;;;;;;12.52;8.30;;;15.70;70.30;;;;;;5022709;28;20122;-78
2022/03/12 11:30:46;;;;;;;12.43;9.35;;;15.90;70.50;;;;;;5012617;28;20046;-78
2022/03/12 11:33:12;;;;;;;13.73;8.77;;;16.40;70.20;;;;;;5044191;28;20042;-77
2022/03/12 11:35:45;;;;;;;15.27;8.77;;;16.40;69.60;;;;;;5053863;28;20077;-78
2022/03/12 11:38:15;;;;;;;12.48;8.52;;;16.40;69.30;;;;;;5029426;28;20081;-76
2022/03/12 11:40:50;;;;;;;14.48;9.50;;;16.30;69.30;;;;;;5009043;28;20046;-76
2022/03/12 11:43:24;;;;;;;10.65;8.00;;;16.30;69.20;;;;;;5034343;28;20057;-76
2022/03/12 11:45:53;;;;;;;13.20;7.80;;;16.20;69.80;;;;;;5021409;28;20065;-77
2022/03/12 11:48:18;;;;;;;12.00;7.20;;;16.20;70.50;;;;;;5024696;28;20050;-78
2022/03/12 11:50:44;;;;;;;12.32;7.68;;;16.40;71.20;;;;;;5026932;28;20056;-78
2022/03/12 11:53:15;;;;;;;11.60;7.55;;;16.60;71.30;;;;;;5023233;28;20049;-76
2022/03/12 11:55:41;;;;;;;15.63;7.20;;;16.90;71.20;;;;;;5022844;28;20414;-77
2022/03/12 11:58:07;;;;;;;9.35;6.72;;;17.10;70.80;;;;;;5027877;28;20042;-76
2022/03/12 12:00:33;;;;;;;11.23;5.72;;;17.30;71.10;;;;;;5009544;28;20041;-76
2022/03/12 12:02:59;;;;;;;11.73;6.13;;;17.30;70.90;;;;;;5028010;28;20054;-78
2022/03/12 12:05:27;;;;;;;10.52;6.53;;;17.10;70.60;;;;;;5022652;28;20104;-77
2022/03/12 12:07:55;;;;;;;12.27;6.22;;;17.30;71.00;;;;;;5026879;28;20048;-77
2022/03/12 12:10:30;;;;;;;11.32;5.40;;;17.20;70.90;;;;;;5027072;28;20086;-77
2022/03/12 12:12:57;;;;;;;10.35;6.05;;;17.10;71.10;;;;;;5020079;28;20054;-78
2022/03/12 12:15:28;;;;;;;10.25;5.85;;;17.30;71.60;;;;;;5042236;28;20067;-77
2022/03/12 12:17:55;;;;;;;13.13;6.55;;;17.60;71.70;;;;;;5046243;28;20033;-78
2022/03/12 12:20:22;;;;;;;7.70;5.30;;;18.00;70.40;;;;;;5050405;28;20042;-77
2022/03/12 12:22:50;;;;;;;9.37;5.33;;;18.20;69.10;;;;;;5028705;28;20089;-78
2022/03/12 12:25:19;;;;;;;8.93;5.20;;;18.40;68.00;;;;;;5043610;28;20731;-77
2022/03/12 12:27:50;;;;;;;8.65;5.60;;;18.40;68.50;;;;;;5045357;28;20041;-78
2022/03/12 12:30:38;;;;;;;7.80;5.25;;;18.50;68.00;;;;;;5048483;28;20124;-77
2022/03/12 12:33:26;;;;;;;8.05;4.95;;;18.40;67.50;;;;;;5023639;28;20077;-78
2022/03/12 12:36:14;;;;;;;11.13;5.10;;;18.20;67.20;;;;;;5042774;28;20099;-78
2022/03/12 12:39:00;;;;;;;9.57;6.15;;;17.90;68.00;;;;;;5024508;28;20041;-78
2022/03/12 12:41:53;;;;;;;9.77;5.70;;;17.70;68.70;;;;;;5030833;28;20037;-76
2022/03/12 12:44:42;;;;;;;13.35;5.93;;;17.40;69.50;;;;;;5028007;28;20071;-77
2022/03/12 12:47:17;;;;;;;12.00;5.70;;;17.40;69.80;;;;;;5025740;28;20076;-77
2022/03/12 12:49:51;;;;;;;10.20;5.75;;;17.30;69.90;;;;;;5021097;28;20077;-78
2022/03/12 12:52:17;;;;;;;9.02;5.43;;;17.40;70.10;;;;;;5043364;28;20053;-78